createdAt,value
2022-07-29T00:02:15.522Z,17.72
2022-07-29T00:04:43.676Z,17.49
2022-07-29T00:07:11.766Z,17.66
2022-07-29T00:09:50.822Z,17.32
2022-07-29T00:12:25.431Z,16.92
2022-07-29T00:14:54.602Z,17.34
2022-07-29T00:17:22.573Z,17.51
2022-07-29T00:19:50.447Z,16.98
2022-07-29T00:22:18.524Z,16.97
2022-07-29T00:24:49.541Z,17.62
2022-07-29T00:27:17.742Z,17.22
2022-07-29T00:29:45.772Z,16.69
2022-07-29T00:32:13.733Z,16.75
2022-07-29T00:34:58.906Z,16.99
2022-07-29T00:37:27.036Z,16.96
2022-07-29T00:39:56.585Z,16.72
2022-07-29T00:42:24.543Z,17.09
2022-07-29T00:44:52.487Z,16.84
2022-07-29T00:47:20.409Z,16.59
2022-07-29T00:49:48.788Z,16.37
2022-07-29T00:52:16.948Z,16.46
2022-07-29T00:54:45.390Z,16.52
2022-07-29T00:57:15.163Z,16.49
2022-07-29T00:59:43.010Z,16.37
2022-07-29T01:02:10.926Z,16.52
2022-07-29T01:04:39.546Z,16.72
2022-07-29T01:07:08.642Z,16.60
2022-07-29T01:09:45.745Z,16.77
2022-07-29T01:12:18.887Z,16.53
2022-07-29T01:14:47.604Z,16.37
2022-07-29T01:17:22.642Z,16.38
2022-07-29T01:19:58.004Z,16.58
2022-07-29T01:22:37.194Z,16.24
2022-07-29T01:25:21.922Z,16.26
2022-07-29T01:28:10.094Z,16.14
2022-07-29T01:30:46.461Z,16.98
2022-07-29T01:33:33.217Z,16.39
2022-07-29T01:36:03.395Z,16.01
2022-07-29T01:38:31.542Z,16.36
2022-07-29T01:41:07.461Z,16.40
2022-07-29T01:43:51.924Z,16.17
2022-07-29T01:46:23.636Z,16.13
2022-07-29T01:48:59.551Z,16.37
2022-07-29T01:51:32.832Z,16.32
2022-07-29T01:54:06.336Z,16.15
2022-07-29T01:56:35.252Z,16.13
2022-07-29T01:59:06.547Z,16.06
2022-07-29T02:01:38.019Z,15.94
2022-07-29T02:04:08.255Z,16.05
2022-07-29T02:06:39.231Z,16.43
2022-07-29T02:09:09.112Z,15.85
2022-07-29T02:11:37.992Z,15.83
2022-07-29T02:14:07.024Z,15.69
2022-07-29T02:16:38.655Z,15.85
2022-07-29T02:19:07.599Z,15.80
2022-07-29T02:21:37.268Z,16.10
2022-07-29T02:24:06.743Z,16.27
2022-07-29T02:26:35.628Z,15.93
2022-07-29T02:29:03.991Z,15.77
2022-07-29T02:31:34.817Z,15.73
2022-07-29T02:34:07.705Z,16.07
2022-07-29T02:36:36.121Z,15.97
2022-07-29T02:39:05.192Z,15.99
2022-07-29T02:41:41.276Z,15.60
2022-07-29T02:44:12.631Z,15.72
2022-07-29T02:46:50.071Z,16.06
2022-07-29T02:49:31.839Z,15.97
2022-07-29T02:52:03.083Z,15.76
2022-07-29T02:54:39.058Z,16.20
2022-07-29T02:57:13.716Z,15.75
2022-07-29T02:59:45.354Z,15.80
2022-07-29T03:02:15.848Z,15.93
2022-07-29T03:04:46.118Z,15.66
2022-07-29T03:07:17.526Z,15.86
2022-07-29T03:09:46.385Z,16.08
2022-07-29T03:12:15.891Z,15.96
2022-07-29T03:14:45.484Z,16.01
2022-07-29T03:17:13.737Z,16.15
2022-07-29T03:19:42.546Z,15.72
2022-07-29T03:22:11.881Z,15.67
2022-07-29T03:24:39.779Z,16.62
2022-07-29T03:27:08.009Z,16.11
2022-07-29T03:29:35.915Z,15.77
2022-07-29T03:32:07.332Z,15.78
2022-07-29T03:34:38.355Z,15.59
2022-07-29T03:37:06.750Z,15.58
2022-07-29T03:39:42.532Z,15.37
2022-07-29T03:42:13.881Z,15.39
2022-07-29T03:44:45.040Z,15.66
2022-07-29T03:47:14.561Z,15.56
2022-07-29T03:49:44.239Z,15.56
2022-07-29T03:52:12.702Z,16.17
2022-07-29T03:54:42.343Z,15.70
2022-07-29T03:57:13.341Z,15.55
2022-07-29T03:59:41.943Z,15.64
2022-07-29T04:02:14.449Z,15.54
2022-07-29T04:04:42.756Z,15.67
2022-07-29T04:07:14.174Z,15.80
2022-07-29T04:09:43.996Z,15.85
2022-07-29T04:12:12.265Z,16.19
2022-07-29T04:14:40.171Z,15.82
2022-07-29T04:17:08.052Z,15.80
2022-07-29T04:19:35.899Z,15.96
2022-07-29T04:22:04.185Z,16.01
2022-07-29T04:24:32.075Z,16.11
2022-07-29T04:27:01.237Z,15.73
2022-07-29T04:29:29.085Z,15.65
2022-07-29T04:31:56.927Z,16.29
2022-07-29T04:34:27.930Z,15.71
2022-07-29T04:36:56.424Z,15.92
2022-07-29T04:39:24.300Z,16.04
2022-07-29T04:41:54.909Z,15.65
2022-07-29T04:44:28.475Z,15.61
2022-07-29T04:46:58.608Z,15.97
2022-07-29T04:49:26.948Z,15.89
2022-07-29T04:51:55.014Z,16.08
2022-07-29T04:54:22.823Z,16.20
2022-07-29T04:56:50.691Z,15.99
2022-07-29T04:59:18.554Z,16.32
2022-07-29T05:01:47.805Z,16.29
2022-07-29T05:04:15.854Z,17.07
2022-07-29T05:06:44.066Z,16.66
2022-07-29T05:09:11.897Z,16.86
2022-07-29T05:11:39.750Z,16.47
2022-07-29T05:14:07.565Z,16.19
2022-07-29T05:16:35.470Z,16.31
2022-07-29T05:19:04.800Z,16.06
2022-07-29T05:21:35.006Z,16.30
2022-07-29T05:24:02.942Z,16.63
2022-07-29T05:26:30.797Z,16.90
2022-07-29T05:28:58.699Z,16.84
2022-07-29T05:31:26.638Z,16.59
2022-07-29T05:33:54.574Z,16.88
2022-07-29T05:36:23.753Z,16.86
2022-07-29T05:38:53.003Z,16.62
2022-07-29T05:41:21.005Z,16.67
2022-07-29T05:43:49.260Z,16.44
2022-07-29T05:46:18.241Z,16.56
2022-07-29T05:48:46.171Z,16.61
2022-07-29T05:51:14.054Z,16.72
2022-07-29T05:53:43.306Z,16.87
2022-07-29T05:56:11.172Z,16.96
2022-07-29T05:58:39.005Z,16.92
2022-07-29T06:01:07.010Z,16.97
2022-07-29T06:03:35.541Z,17.14
2022-07-29T06:06:03.360Z,17.19
2022-07-29T06:08:31.199Z,17.34
2022-07-29T06:11:00.713Z,17.34
2022-07-29T06:13:28.683Z,17.22
2022-07-29T06:15:58.804Z,17.43
2022-07-29T06:19:02.074Z,17.70
2022-07-29T06:21:33.156Z,17.94
2022-07-29T06:24:19.053Z,17.81
2022-07-29T06:26:54.157Z,17.75
2022-07-29T06:29:22.202Z,17.93
2022-07-29T06:31:50.049Z,18.29
2022-07-29T06:34:18.228Z,18.37
2022-07-29T06:36:46.382Z,18.16
2022-07-29T06:39:14.951Z,18.19
2022-07-29T06:41:43.085Z,18.48
2022-07-29T06:44:15.439Z,18.48
2022-07-29T06:46:44.950Z,18.52
2022-07-29T06:49:13.888Z,18.50
2022-07-29T06:51:42.158Z,18.49
2022-07-29T06:54:10.033Z,18.68
2022-07-29T06:56:40.300Z,18.87
2022-07-29T06:59:10.422Z,18.91
2022-07-29T07:01:41.857Z,18.69
2022-07-29T07:04:10.663Z,18.63
2022-07-29T07:06:38.811Z,18.74
2022-07-29T07:09:07.041Z,18.94
2022-07-29T07:11:35.047Z,18.86
2022-07-29T07:14:04.240Z,19.00
2022-07-29T07:16:33.418Z,19.02
2022-07-29T07:19:03.200Z,18.97
2022-07-29T07:21:31.562Z,19.22
2022-07-29T07:24:00.234Z,19.35
2022-07-29T07:26:28.337Z,19.34
2022-07-29T07:28:56.369Z,19.43
2022-07-29T07:31:24.475Z,19.43
2022-07-29T07:33:54.307Z,19.52
2022-07-29T07:36:24.155Z,19.55
2022-07-29T07:38:52.154Z,19.52
2022-07-29T07:41:20.177Z,19.71
2022-07-29T07:43:48.639Z,19.93
2022-07-29T07:46:17.742Z,20.04
2022-07-29T07:48:46.030Z,20.17
2022-07-29T07:51:14.059Z,20.24
2022-07-29T07:53:43.493Z,20.28
2022-07-29T07:56:12.720Z,20.39
2022-07-29T07:58:41.426Z,20.58
2022-07-29T08:01:10.553Z,20.73
2022-07-29T08:03:39.020Z,20.89
2022-07-29T08:06:07.832Z,21.02
2022-07-29T08:08:36.085Z,21.14
2022-07-29T08:11:09.832Z,21.32
2022-07-29T08:13:39.532Z,21.43
2022-07-29T08:16:13.859Z,21.50
2022-07-29T08:18:43.143Z,21.56
2022-07-29T08:21:11.518Z,21.69
2022-07-29T08:23:57.604Z,21.86
2022-07-29T08:26:29.541Z,22.01
2022-07-29T08:28:57.553Z,21.96
2022-07-29T08:31:25.781Z,22.17
2022-07-29T08:33:53.800Z,22.32
2022-07-29T08:36:23.354Z,22.42
2022-07-29T08:38:52.225Z,22.50
2022-07-29T08:41:21.167Z,22.54
2022-07-29T08:43:51.949Z,22.46
2022-07-29T08:46:20.754Z,22.33
2022-07-29T08:48:49.807Z,22.38
2022-07-29T08:51:19.586Z,22.59
2022-07-29T08:53:50.324Z,22.74
2022-07-29T08:56:19.922Z,22.90
2022-07-29T08:58:51.629Z,22.95
2022-07-29T09:01:36.531Z,23.04
2022-07-29T09:04:14.349Z,23.07
2022-07-29T09:06:46.830Z,23.09
2022-07-29T09:09:15.671Z,23.15
2022-07-29T09:11:45.275Z,23.12
2022-07-29T09:14:14.509Z,23.08
2022-07-29T09:16:53.879Z,23.12
2022-07-29T09:19:27.319Z,23.17
2022-07-29T09:22:03.190Z,23.37
2022-07-29T09:24:43.100Z,23.56
2022-07-29T09:27:13.381Z,23.54
2022-07-29T09:29:41.369Z,23.62
2022-07-29T09:32:12.359Z,23.62
2022-07-29T09:34:40.587Z,23.68
2022-07-29T09:37:09.266Z,23.90
2022-07-29T09:39:45.142Z,23.85
2022-07-29T09:42:16.693Z,23.83
2022-07-29T09:44:46.767Z,23.74
2022-07-29T09:47:17.698Z,23.90
2022-07-29T09:49:58.909Z,24.15
2022-07-29T09:52:27.917Z,24.16
2022-07-29T09:55:07.508Z,24.39
2022-07-29T09:57:35.414Z,24.31
2022-07-29T10:00:09.235Z,24.46
2022-07-29T10:02:44.397Z,24.41
2022-07-29T10:05:21.186Z,24.65
2022-07-29T10:07:53.647Z,24.70
2022-07-29T10:10:24.255Z,25.04
2022-07-29T10:12:55.544Z,25.26
2022-07-29T10:15:25.456Z,25.57
2022-07-29T10:17:56.522Z,25.70
2022-07-29T10:20:25.333Z,25.55
2022-07-29T10:22:54.429Z,25.71
2022-07-29T10:25:23.156Z,25.89
2022-07-29T10:27:53.101Z,26.12
2022-07-29T10:30:22.646Z,26.22
2022-07-29T10:33:19.938Z,25.61
2022-07-29T10:36:07.210Z,25.74
2022-07-29T10:38:45.644Z,25.42
2022-07-29T10:41:32.240Z,25.93
2022-07-29T10:44:07.431Z,26.11
2022-07-29T10:46:38.392Z,26.53
2022-07-29T10:49:11.223Z,26.22
2022-07-29T10:52:00.959Z,26.07
2022-07-29T10:54:47.400Z,26.85
2022-07-29T10:57:53.823Z,27.03
2022-07-29T11:00:32.553Z,27.40
2022-07-29T11:03:04.668Z,27.10
2022-07-29T11:05:59.378Z,26.78
2022-07-29T11:08:28.953Z,27.23
2022-07-29T11:11:35.001Z,26.75
2022-07-29T11:14:05.730Z,26.45
2022-07-29T11:17:07.020Z,27.03
2022-07-29T11:19:37.237Z,27.45
2022-07-29T11:22:12.286Z,26.62
2022-07-29T11:24:50.090Z,26.58
2022-07-29T11:27:20.900Z,26.24
2022-07-29T11:29:57.401Z,26.76
2022-07-29T11:32:36.979Z,26.64
2022-07-29T11:35:19.398Z,28.54
2022-07-29T11:38:28.382Z,29.38
2022-07-29T11:41:22.898Z,30.68
2022-07-29T11:43:53.153Z,29.95
2022-07-29T11:46:46.376Z,28.38
2022-07-29T11:49:15.386Z,30.27
2022-07-29T11:51:48.525Z,29.20
2022-07-29T11:54:27.534Z,31.30
2022-07-29T11:56:56.003Z,31.98
2022-07-29T11:59:33.525Z,29.50
2022-07-29T12:02:36.384Z,30.12
2022-07-29T12:04:51.731Z,30.85
2022-07-29T12:07:20.401Z,31.84
2022-07-29T12:09:53.843Z,32.34
2022-07-29T12:12:25.741Z,30.81
2022-07-29T12:14:55.953Z,30.55
2022-07-29T12:17:30.606Z,31.89
2022-07-29T12:20:00.408Z,31.36
2022-07-29T12:22:32.970Z,31.19
2022-07-29T12:25:32.519Z,32.30
2022-07-29T12:28:01.355Z,33.23
2022-07-29T12:30:41.580Z,32.48
2022-07-29T12:33:18.683Z,31.69
2022-07-29T12:36:03.460Z,30.87
2022-07-29T12:38:35.934Z,30.56
2022-07-29T12:41:05.482Z,31.03
2022-07-29T12:43:55.836Z,31.57
2022-07-29T12:46:23.890Z,31.72
2022-07-29T12:48:55.643Z,31.23
2022-07-29T12:51:31.963Z,30.84
2022-07-29T12:54:09.482Z,30.48
2022-07-29T12:56:43.138Z,30.56
2022-07-29T12:59:16.539Z,29.93
2022-07-29T13:01:44.738Z,29.10
2022-07-29T13:04:12.830Z,30.75
2022-07-29T13:06:42.636Z,31.28
2022-07-29T13:09:15.334Z,32.39
2022-07-29T13:11:48.598Z,32.90
2022-07-29T13:14:33.433Z,32.73
2022-07-29T13:17:08.523Z,31.77
2022-07-29T13:19:42.378Z,30.91
2022-07-29T13:22:11.373Z,30.16
2022-07-29T13:24:58.075Z,30.02
2022-07-29T13:27:29.597Z,28.99
2022-07-29T13:29:59.381Z,30.11
2022-07-29T13:32:29.008Z,28.83
2022-07-29T13:34:57.605Z,29.34
2022-07-29T13:37:25.755Z,29.99
2022-07-29T13:39:55.115Z,29.35
2022-07-29T13:42:23.882Z,29.77
2022-07-29T13:44:53.236Z,29.05
2022-07-29T13:47:21.995Z,29.78
2022-07-29T13:49:50.056Z,30.60
2022-07-29T13:52:18.187Z,31.19
2022-07-29T13:54:46.161Z,29.60
2022-07-29T13:57:14.787Z,30.69
2022-07-29T13:59:43.867Z,30.62
2022-07-29T14:02:15.749Z,30.58
2022-07-29T14:04:43.721Z,30.52
2022-07-29T14:07:11.715Z,29.85
2022-07-29T14:09:44.503Z,30.00
2022-07-29T14:12:13.446Z,30.11
2022-07-29T14:14:42.461Z,29.43
2022-07-29T14:17:11.148Z,30.06
2022-07-29T14:19:40.412Z,28.72
2022-07-29T14:22:10.717Z,28.84
2022-07-29T14:24:39.520Z,28.49
2022-07-29T14:27:08.821Z,28.23
2022-07-29T14:29:38.649Z,27.83
2022-07-29T14:32:08.030Z,27.97
2022-07-29T14:34:36.433Z,28.63
2022-07-29T14:37:07.248Z,28.52
2022-07-29T14:39:39.520Z,28.64
2022-07-29T14:42:12.338Z,28.12
2022-07-29T14:44:42.210Z,29.00
2022-07-29T14:47:11.156Z,29.23
2022-07-29T14:49:39.127Z,28.61
2022-07-29T14:52:08.267Z,28.71
2022-07-29T14:54:36.351Z,28.84
2022-07-29T14:57:04.208Z,28.82
2022-07-29T14:59:32.121Z,29.41
2022-07-29T15:02:00.451Z,29.87
2022-07-29T15:04:28.710Z,29.41
2022-07-29T15:06:56.620Z,28.95
2022-07-29T15:09:25.983Z,29.58
2022-07-29T15:11:53.896Z,30.23
2022-07-29T15:14:21.882Z,29.32
2022-07-29T15:16:49.819Z,29.05
2022-07-29T15:19:20.593Z,30.19
2022-07-29T15:21:49.190Z,29.59
2022-07-29T15:24:17.714Z,29.34
2022-07-29T15:26:47.422Z,29.46
2022-07-29T15:29:16.372Z,28.32
2022-07-29T15:31:44.963Z,28.64
2022-07-29T15:34:12.941Z,28.51
2022-07-29T15:36:56.543Z,28.60
2022-07-29T15:39:24.434Z,28.65
2022-07-29T15:41:53.977Z,29.45
2022-07-29T15:44:22.599Z,29.44
2022-07-29T15:47:07.203Z,29.86
2022-07-29T15:49:47.915Z,29.82
2022-07-29T15:52:19.192Z,29.49
2022-07-29T15:54:53.487Z,28.98
2022-07-29T15:57:23.033Z,29.21
2022-07-29T15:59:51.884Z,28.92
2022-07-29T16:02:20.101Z,29.66
2022-07-29T16:04:48.059Z,29.08
2022-07-29T16:07:16.443Z,28.59
2022-07-29T16:09:50.895Z,28.67
2022-07-29T16:12:21.972Z,28.69
2022-07-29T16:14:51.158Z,29.20
2022-07-29T16:17:19.450Z,29.32
2022-07-29T16:19:47.502Z,29.12
2022-07-29T16:22:15.397Z,28.53
2022-07-29T16:24:43.354Z,28.59
2022-07-29T16:27:11.254Z,29.40
2022-07-29T16:29:40.500Z,28.87
2022-07-29T16:32:08.497Z,28.16
2022-07-29T16:34:36.429Z,28.21
2022-07-29T16:37:05.129Z,28.40
2022-07-29T16:39:33.645Z,29.02
2022-07-29T16:42:03.955Z,28.61
2022-07-29T16:44:33.334Z,28.21
2022-07-29T16:47:04.292Z,28.11
2022-07-29T16:49:32.392Z,28.01
2022-07-29T16:52:00.232Z,28.49
2022-07-29T16:54:29.111Z,28.86
2022-07-29T16:56:57.357Z,28.34
2022-07-29T16:59:25.533Z,28.14
2022-07-29T17:01:53.534Z,27.87
2022-07-29T17:04:23.013Z,27.81
2022-07-29T17:06:51.552Z,27.65
2022-07-29T17:09:19.455Z,28.02
2022-07-29T17:11:54.883Z,27.91
2022-07-29T17:14:33.303Z,27.45
2022-07-29T17:17:03.267Z,27.98
2022-07-29T17:19:36.032Z,27.89
2022-07-29T17:22:14.050Z,27.47
2022-07-29T17:24:46.570Z,27.70
2022-07-29T17:27:15.119Z,27.94
2022-07-29T17:29:43.374Z,28.07
2022-07-29T17:32:12.453Z,28.09
2022-07-29T17:34:43.188Z,27.60
2022-07-29T17:37:13.375Z,27.36
2022-07-29T17:39:42.282Z,27.00
2022-07-29T17:42:10.834Z,26.83
2022-07-29T17:44:38.677Z,26.81
2022-07-29T17:47:07.992Z,26.81
2022-07-29T17:49:45.925Z,26.62
2022-07-29T17:52:13.918Z,26.72
2022-07-29T17:54:41.926Z,26.60
2022-07-29T17:57:09.849Z,26.34
2022-07-29T17:59:37.712Z,26.44
2022-07-29T18:02:05.711Z,26.54
2022-07-29T18:04:33.763Z,26.51
2022-07-29T18:07:03.037Z,26.48
2022-07-29T18:09:30.947Z,26.39
2022-07-29T18:11:58.859Z,26.33
2022-07-29T18:14:27.721Z,26.19
2022-07-29T18:16:55.901Z,26.18
2022-07-29T18:19:24.098Z,25.99
2022-07-29T18:21:54.895Z,25.90
2022-07-29T18:24:27.509Z,25.79
2022-07-29T18:26:56.522Z,25.66
2022-07-29T18:29:24.676Z,25.54
2022-07-29T18:31:52.529Z,25.41
2022-07-29T18:34:20.447Z,25.41
2022-07-29T18:36:48.367Z,25.34
2022-07-29T18:39:20.999Z,25.26
2022-07-29T18:41:51.807Z,25.22
2022-07-29T18:44:22.120Z,25.10
2022-07-29T18:46:51.346Z,25.04
2022-07-29T18:49:20.007Z,25.02
2022-07-29T18:51:48.179Z,24.93
2022-07-29T18:54:17.271Z,24.92
2022-07-29T18:56:45.258Z,24.75
2022-07-29T18:59:17.060Z,24.71
2022-07-29T19:01:45.274Z,24.64
2022-07-29T19:04:13.220Z,24.58
2022-07-29T19:06:41.435Z,24.56
2022-07-29T19:09:09.528Z,24.48
2022-07-29T19:11:38.091Z,24.39
2022-07-29T19:14:06.505Z,24.43
2022-07-29T19:16:35.837Z,24.37
2022-07-29T19:19:03.828Z,24.23
2022-07-29T19:21:31.743Z,24.17
2022-07-29T19:24:06.655Z,24.14
2022-07-29T19:26:39.270Z,24.06
2022-07-29T19:29:07.122Z,24.00
2022-07-29T19:31:36.500Z,23.98
2022-07-29T19:34:04.685Z,23.92
2022-07-29T19:36:32.528Z,23.85
2022-07-29T19:39:00.924Z,23.79
2022-07-29T19:41:29.066Z,23.80
2022-07-29T19:43:57.205Z,23.71
2022-07-29T19:46:28.741Z,23.63
2022-07-29T19:48:58.297Z,23.61
2022-07-29T19:51:27.014Z,23.58
2022-07-29T19:53:54.911Z,23.55
2022-07-29T19:56:25.313Z,23.50
2022-07-29T19:58:53.347Z,23.41
2022-07-29T20:01:21.550Z,23.33
2022-07-29T20:03:49.576Z,23.26
2022-07-29T20:06:18.927Z,23.23
2022-07-29T20:08:47.240Z,23.12
2022-07-29T20:11:15.188Z,23.11
2022-07-29T20:13:43.103Z,23.12
2022-07-29T20:16:11.136Z,23.07
2022-07-29T20:18:39.251Z,22.95
2022-07-29T20:21:07.138Z,22.89
2022-07-29T20:23:37.356Z,22.80
2022-07-29T20:26:09.324Z,22.78
2022-07-29T20:28:40.044Z,22.69
2022-07-29T20:31:08.666Z,22.62
2022-07-29T20:33:36.665Z,22.57
2022-07-29T20:36:05.060Z,22.55
2022-07-29T20:38:32.950Z,22.46
2022-07-29T20:41:02.249Z,22.46
2022-07-29T20:43:30.321Z,22.49
2022-07-29T20:46:03.932Z,22.44
2022-07-29T20:48:31.853Z,22.45
2022-07-29T20:51:01.455Z,22.45
2022-07-29T20:53:29.396Z,22.42
2022-07-29T20:55:57.247Z,22.41
2022-07-29T20:58:29.589Z,22.27
2022-07-29T21:01:00.032Z,22.26
2022-07-29T21:03:27.920Z,22.20
2022-07-29T21:05:56.403Z,22.16
2022-07-29T21:08:24.449Z,22.19
2022-07-29T21:10:52.753Z,22.18
2022-07-29T21:13:22.952Z,22.21
2022-07-29T21:15:55.891Z,22.11
2022-07-29T21:18:32.390Z,22.18
2022-07-29T21:21:01.952Z,22.08
2022-07-29T21:23:30.007Z,22.05
2022-07-29T21:25:58.662Z,22.03
2022-07-29T21:28:30.397Z,22.02
2022-07-29T21:31:02.102Z,22.06
2022-07-29T21:33:31.687Z,21.99
2022-07-29T21:36:20.198Z,21.95
2022-07-29T21:38:47.799Z,21.94
2022-07-29T21:41:15.754Z,21.94
2022-07-29T21:43:43.665Z,21.93
2022-07-29T21:46:12.973Z,21.93
2022-07-29T21:48:44.307Z,21.84
2022-07-29T21:51:12.658Z,21.87
2022-07-29T21:53:40.526Z,21.81
2022-07-29T21:56:09.446Z,21.74
2022-07-29T21:58:42.819Z,21.71
2022-07-29T22:01:12.105Z,21.64
2022-07-29T22:03:40.041Z,21.61
2022-07-29T22:06:08.031Z,21.57
2022-07-29T22:08:40.177Z,21.53
2022-07-29T22:11:08.007Z,21.48
2022-07-29T22:13:36.987Z,21.56
2022-07-29T22:16:05.230Z,21.44
2022-07-29T22:18:34.385Z,21.37
2022-07-29T22:21:02.464Z,21.43
2022-07-29T22:23:30.321Z,21.38
2022-07-29T22:25:58.190Z,21.39
2022-07-29T22:28:26.150Z,21.39
2022-07-29T22:30:54.068Z,21.39
2022-07-29T22:33:23.679Z,21.31
2022-07-29T22:35:52.828Z,21.20
2022-07-29T22:38:20.794Z,21.10
2022-07-29T22:40:50.516Z,21.10
2022-07-29T22:43:18.701Z,21.15
2022-07-29T22:45:46.644Z,21.04
2022-07-29T22:48:14.571Z,21.06
2022-07-29T22:50:42.748Z,21.01
2022-07-29T22:53:11.968Z,21.05
2022-07-29T22:55:39.877Z,21.01
2022-07-29T22:58:07.739Z,20.88
2022-07-29T23:00:35.703Z,20.87
2022-07-29T23:03:04.263Z,20.78
2022-07-29T23:05:32.542Z,20.88
2022-07-29T23:08:00.439Z,20.86
2022-07-29T23:10:29.874Z,20.69
2022-07-29T23:12:57.738Z,20.80
2022-07-29T23:15:25.808Z,20.77
2022-07-29T23:17:53.691Z,20.78
2022-07-29T23:20:21.686Z,20.67
2022-07-29T23:22:49.587Z,20.69
2022-07-29T23:25:17.402Z,20.75
2022-07-29T23:27:46.592Z,20.54
2022-07-29T23:30:14.953Z,20.58
2022-07-29T23:32:42.831Z,20.56
2022-07-29T23:35:11.099Z,20.49
2022-07-29T23:37:39.334Z,20.43
2022-07-29T23:40:13.627Z,20.52
2022-07-29T23:42:43.181Z,20.55
2022-07-29T23:45:14.327Z,20.37
2022-07-29T23:47:43.171Z,20.38
2022-07-29T23:50:13.169Z,20.32
2022-07-29T23:52:41.502Z,20.25
2022-07-29T23:55:38.213Z,20.33
2022-07-29T23:57:58.081Z,20.22
